Time;durP1;ratioP1;P1;durP2;ratioP2;P2;SDS_P1;SDS_P2;PMS_P1;PMS_P2;Temp;Humidity;BMP_temperature;BMP_pressure;BME280_temperature;BME280_humidity;BME280_pressure;Samples;Min_cycle;Max_cycle;Signal;HPM_P1;HPM_P2
2022/04/23 00:01:46;;;;;;;27.98;10.55;;;10.70;99.90;;;;;;5098198;28;20102;-84
2022/04/23 00:04:13;;;;;;;26.67;10.52;;;10.70;99.90;;;;;;5098232;28;20082;-83
2022/04/23 00:06:39;;;;;;;24.20;10.15;;;10.70;99.90;;;;;;5099298;28;20024;-84
2022/04/23 00:09:06;;;;;;;22.73;11.13;;;10.70;99.90;;;;;;5099359;28;20507;-83
2022/04/23 00:11:35;;;;;;;18.17;9.18;;;10.70;99.90;;;;;;5100506;28;20027;-84
2022/04/23 00:14:04;;;;;;;19.63;10.68;;;10.80;99.90;;;;;;5100575;28;20023;-84
2022/04/23 00:16:30;;;;;;;29.02;11.10;;;10.80;99.90;;;;;;5098937;28;20036;-84
2022/04/23 00:18:58;;;;;;;24.75;9.65;;;10.80;99.90;;;;;;5096272;28;20023;-84
2022/04/23 00:21:24;;;;;;;30.55;11.13;;;10.80;99.90;;;;;;5103223;28;20020;-83
2022/04/23 00:23:50;;;;;;;29.30;11.23;;;10.80;99.90;;;;;;5098864;28;20043;-83
2022/04/23 00:26:16;;;;;;;25.58;10.38;;;10.80;99.90;;;;;;5097998;28;20024;-83
2022/04/23 00:28:42;;;;;;;26.45;10.55;;;10.80;99.90;;;;;;5090222;28;20059;-83
2022/04/23 00:31:08;;;;;;;21.13;9.90;;;10.70;99.90;;;;;;5097893;28;20057;-84
2022/04/23 00:33:38;;;;;;;27.23;11.15;;;10.80;99.90;;;;;;5099017;28;20024;-83
2022/04/23 00:36:10;;;;;;;25.20;11.77;;;10.70;99.90;;;;;;5099084;28;20056;-82
2022/04/23 00:38:40;;;;;;;23.70;11.05;;;10.70;99.90;;;;;;5098747;28;20023;-83
2022/04/23 00:41:07;;;;;;;19.40;10.15;;;10.70;99.90;;;;;;5100332;28;20024;-83
2022/04/23 00:43:34;;;;;;;29.48;10.85;;;10.70;99.90;;;;;;5096393;28;20287;-83
2022/04/23 00:46:01;;;;;;;22.55;10.15;;;10.70;99.90;;;;;;5097471;28;20035;-83
2022/04/23 00:48:28;;;;;;;23.50;12.27;;;10.70;99.90;;;;;;5098424;28;20061;-83
2022/04/23 00:50:56;;;;;;;26.73;11.20;;;10.70;99.90;;;;;;5097580;28;20020;-84
2022/04/23 00:53:23;;;;;;;30.27;12.65;;;10.70;99.90;;;;;;5097306;28;20028;-82
2022/04/23 00:55:52;;;;;;;23.90;10.65;;;10.70;99.90;;;;;;5095602;28;20059;-83
2022/04/23 00:58:18;;;;;;;25.65;12.07;;;10.70;99.90;;;;;;5099009;28;20122;-84
2022/04/23 01:00:45;;;;;;;31.88;11.00;;;10.70;99.90;;;;;;5098634;28;20062;-84
2022/04/23 01:03:12;;;;;;;25.55;11.50;;;10.70;99.90;;;;;;5099827;28;20058;-84
2022/04/23 01:05:44;;;;;;;22.05;11.13;;;10.70;99.90;;;;;;5100001;28;20393;-83
2022/04/23 01:08:12;;;;;;;24.25;12.18;;;10.80;99.90;;;;;;5097288;28;20019;-83
2022/04/23 01:10:39;;;;;;;26.48;11.07;;;10.70;99.90;;;;;;5096959;28;20507;-83
2022/04/23 01:13:06;;;;;;;30.90;11.68;;;10.80;99.90;;;;;;5124763;22;20051;-78
2022/04/23 01:15:33;;;;;;;29.67;11.98;;;10.80;99.90;;;;;;5105352;28;20391;-79
2022/04/23 01:17:59;;;;;;;23.65;11.65;;;10.80;99.90;;;;;;5112227;27;20020;-78
2022/04/23 01:20:25;;;;;;;28.73;10.77;;;10.80;99.90;;;;;;5112362;28;20027;-79
2022/04/23 01:22:51;;;;;;;35.35;12.48;;;10.80;99.90;;;;;;5106386;27;20030;-81
2022/04/23 01:25:17;;;;;;;27.02;12.20;;;10.80;99.90;;;;;;5102277;28;20012;-80
2022/04/23 01:27:47;;;;;;;25.95;12.20;;;10.80;99.90;;;;;;5103406;28;20030;-80
2022/04/23 01:30:13;;;;;;;31.42;12.38;;;10.80;99.90;;;;;;5098959;28;20452;-80
2022/04/23 01:32:39;;;;;;;27.10;11.55;;;10.80;99.90;;;;;;5102643;28;20064;-80
2022/04/23 01:35:06;;;;;;;26.88;12.02;;;10.80;99.90;;;;;;5100596;28;20061;-80
2022/04/23 01:37:32;;;;;;;25.38;12.63;;;10.80;99.90;;;;;;5098974;28;20027;-80
2022/04/23 01:39:57;;;;;;;35.38;12.45;;;10.80;99.90;;;;;;5102981;28;20353;-80
2022/04/23 01:42:23;;;;;;;33.10;13.55;;;10.80;99.90;;;;;;5101907;28;20456;-80
2022/04/23 01:44:51;;;;;;;33.05;13.88;;;10.80;99.90;;;;;;5098372;28;20107;-80
2022/04/23 01:47:17;;;;;;;26.25;13.07;;;10.70;99.90;;;;;;5103195;28;20016;-80
2022/04/23 01:49:44;;;;;;;32.25;12.30;;;10.80;99.90;;;;;;5101463;28;20372;-80
2022/04/23 01:52:11;;;;;;;26.10;12.07;;;10.80;99.90;;;;;;5098481;28;20027;-80
2022/04/23 01:54:36;;;;;;;29.95;11.95;;;10.80;99.90;;;;;;5099079;28;20034;-80
2022/04/23 01:57:02;;;;;;;36.45;12.05;;;10.80;99.90;;;;;;5100860;28;20024;-80
2022/04/23 01:59:30;;;;;;;29.70;12.73;;;10.80;99.90;;;;;;5103182;28;20051;-80
2022/04/23 02:01:56;;;;;;;34.50;12.60;;;10.80;99.90;;;;;;5098433;28;20020;-80
2022/04/23 02:04:22;;;;;;;30.30;12.65;;;10.80;99.90;;;;;;5101770;28;20024;-80
2022/04/23 02:06:48;;;;;;;30.77;12.32;;;10.80;99.90;;;;;;5102563;28;20383;-80
2022/04/23 02:09:14;;;;;;;36.60;13.07;;;10.80;99.90;;;;;;5098680;28;20074;-80
2022/04/23 02:11:40;;;;;;;27.38;12.30;;;10.80;99.90;;;;;;5124139;22;20034;-83
2022/04/23 02:14:06;;;;;;;33.70;13.40;;;10.80;99.90;;;;;;5098503;28;20032;-82
2022/04/23 02:16:32;;;;;;;24.77;12.98;;;10.80;99.90;;;;;;5097246;28;20031;-82
2022/04/23 02:18:58;;;;;;;31.75;12.60;;;10.80;99.90;;;;;;5094257;28;20068;-83
2022/04/23 02:21:25;;;;;;;30.70;12.60;;;10.80;99.90;;;;;;5094543;28;20073;-84
2022/04/23 02:23:54;;;;;;;30.35;14.10;;;10.80;99.90;;;;;;5090388;28;20019;-84
2022/04/23 02:26:21;;;;;;;35.00;14.65;;;10.80;99.90;;;;;;5089730;28;20031;-84
2022/04/23 02:28:47;;;;;;;27.40;12.40;;;10.80;99.90;;;;;;5089331;28;20024;-83
2022/04/23 02:31:13;;;;;;;25.75;12.52;;;10.80;99.90;;;;;;5089808;28;20047;-83
2022/04/23 02:33:40;;;;;;;27.50;12.38;;;10.80;99.90;;;;;;5088988;28;20135;-83
2022/04/23 02:36:06;;;;;;;33.17;12.05;;;10.80;99.90;;;;;;5089372;28;20036;-83
2022/04/23 02:38:39;;;;;;;30.83;13.52;;;10.80;99.90;;;;;;5089537;28;20510;-83
2022/04/23 02:41:06;;;;;;;30.58;12.95;;;10.80;99.90;;;;;;5090030;28;20020;-83
2022/04/23 02:43:35;;;;;;;30.17;12.43;;;10.80;99.90;;;;;;5087872;28;20023;-83
2022/04/23 02:46:02;;;;;;;25.65;12.65;;;10.80;99.90;;;;;;5089265;28;20096;-83
2022/04/23 02:48:28;;;;;;;32.63;13.95;;;10.80;99.90;;;;;;5088681;28;20402;-84
2022/04/23 02:50:54;;;;;;;30.80;12.68;;;10.90;99.90;;;;;;5081308;28;20027;-84
2022/04/23 02:53:20;;;;;;;34.58;14.38;;;10.80;99.90;;;;;;5089423;28;20464;-83
2022/04/23 02:55:46;;;;;;;37.38;14.02;;;10.90;99.90;;;;;;5089979;28;20145;-84
2022/04/23 02:58:13;;;;;;;28.88;12.88;;;10.90;99.90;;;;;;5093073;28;20027;-84
2022/04/23 03:00:40;;;;;;;28.75;13.60;;;10.90;99.90;;;;;;5086263;28;20024;-84
2022/04/23 03:03:08;;;;;;;27.25;12.93;;;10.90;99.90;;;;;;5093224;28;20062;-84
2022/04/23 03:05:34;;;;;;;32.58;13.35;;;10.90;99.90;;;;;;5094005;28;20027;-84
2022/04/23 03:08:02;;;;;;;30.40;12.60;;;10.90;99.90;;;;;;5093123;28;20024;-84
2022/04/23 03:10:30;;;;;;;34.72;13.70;;;10.90;99.90;;;;;;5093164;28;20016;-84
2022/04/23 03:12:57;;;;;;;26.85;13.25;;;10.90;99.90;;;;;;5126255;22;20126;-78
2022/04/23 03:15:24;;;;;;;34.90;13.05;;;10.90;99.90;;;;;;5114009;28;20377;-79
2022/04/23 03:17:50;;;;;;;31.42;13.38;;;11.00;99.90;;;;;;5114655;28;20023;-80
2022/04/23 03:20:16;;;;;;;33.92;14.82;;;10.90;99.90;;;;;;5114970;28;20028;-80
2022/04/23 03:22:43;;;;;;;31.33;14.13;;;10.90;99.90;;;;;;5113797;27;20380;-80
2022/04/23 03:25:11;;;;;;;42.33;14.93;;;10.90;99.90;;;;;;5113330;28;20028;-80
2022/04/23 03:27:37;;;;;;;30.95;13.13;;;10.90;99.90;;;;;;5114386;28;20020;-80
2022/04/23 03:30:04;;;;;;;33.83;14.40;;;10.90;99.90;;;;;;5114040;28;20028;-79
2022/04/23 03:32:31;;;;;;;39.10;13.90;;;10.90;99.90;;;;;;5113907;28;20026;-80
2022/04/23 03:34:59;;;;;;;33.53;14.85;;;10.90;99.90;;;;;;5114400;28;20019;-80
2022/04/23 03:37:25;;;;;;;37.22;15.63;;;10.90;99.90;;;;;;5114090;28;20047;-80
2022/04/23 03:39:51;;;;;;;30.73;14.13;;;11.00;99.90;;;;;;5113796;28;20464;-80
2022/04/23 03:42:16;;;;;;;34.35;15.57;;;11.00;99.90;;;;;;5113279;28;20454;-80
2022/04/23 03:44:42;;;;;;;44.17;15.43;;;11.00;99.90;;;;;;5113234;28;20020;-80
2022/04/23 03:47:08;;;;;;;31.85;15.45;;;11.00;99.90;;;;;;5111468;28;20023;-80
2022/04/23 03:49:33;;;;;;;34.05;15.00;;;11.10;99.90;;;;;;5111489;28;20091;-80
2022/04/23 03:52:02;;;;;;;34.97;16.27;;;11.00;99.90;;;;;;5111118;28;20031;-80
2022/04/23 03:54:28;;;;;;;34.50;15.73;;;11.00;99.90;;;;;;5113378;28;20156;-80
2022/04/23 03:56:54;;;;;;;36.03;16.20;;;11.10;99.90;;;;;;5112991;28;20130;-81
2022/04/23 03:59:21;;;;;;;37.00;16.73;;;11.10;99.90;;;;;;5113857;28;20020;-81
2022/04/23 04:01:48;;;;;;;31.98;15.70;;;11.10;99.90;;;;;;5113524;28;20527;-80
2022/04/23 04:04:14;;;;;;;38.47;16.38;;;11.10;99.90;;;;;;5113547;28;20027;-81
2022/04/23 04:06:41;;;;;;;31.55;16.15;;;11.10;99.90;;;;;;5114019;28;20051;-80
2022/04/23 04:09:07;;;;;;;31.55;16.40;;;11.10;99.90;;;;;;5113502;28;20468;-80
2022/04/23 04:14:02;;;;;;;33.90;16.98;;;11.20;99.90;;;;;;5089943;28;20055;-85
2022/04/23 04:16:28;;;;;;;38.53;17.42;;;11.20;99.90;;;;;;5092927;28;20035;-85
2022/04/23 04:18:54;;;;;;;33.15;16.77;;;11.10;99.90;;;;;;5091750;28;20020;-82
2022/04/23 04:21:20;;;;;;;37.15;18.08;;;11.10;99.90;;;;;;5093051;28;20028;-82
2022/04/23 04:23:46;;;;;;;32.17;17.02;;;11.10;99.90;;;;;;5073638;28;20020;-82
2022/04/23 04:26:11;;;;;;;39.60;19.77;;;11.10;99.90;;;;;;5072703;28;20382;-85
2022/04/23 04:28:37;;;;;;;36.60;18.38;;;11.00;99.90;;;;;;5070832;28;20146;-82
2022/04/23 04:33:47;;;;;;;34.83;17.85;;;11.20;99.90;;;;;;5066994;28;20833;-82
2022/04/23 04:36:13;;;;;;;35.63;19.08;;;11.20;99.90;;;;;;5072552;28;20060;-81
2022/04/23 04:38:39;;;;;;;43.85;20.00;;;11.20;99.90;;;;;;5072196;28;20056;-82
2022/04/23 04:41:04;;;;;;;44.42;20.70;;;11.20;99.90;;;;;;5072624;28;20085;-82
2022/04/23 04:43:31;;;;;;;38.10;20.27;;;11.10;99.90;;;;;;5071762;28;20028;-82
2022/04/23 04:45:57;;;;;;;42.28;20.92;;;11.10;99.90;;;;;;5070546;28;20029;-81
2022/04/23 04:48:23;;;;;;;39.83;21.42;;;11.10;99.90;;;;;;5072416;28;20445;-82
2022/04/23 04:50:48;;;;;;;34.33;19.75;;;11.10;99.90;;;;;;5072384;28;20051;-84
2022/04/23 04:53:14;;;;;;;32.85;19.73;;;11.20;99.90;;;;;;5071861;28;20029;-82
2022/04/23 04:55:41;;;;;;;40.53;22.65;;;11.20;99.90;;;;;;5072439;28;20037;-82
2022/04/23 04:58:07;;;;;;;33.97;20.30;;;11.20;99.90;;;;;;5071525;28;20074;-81
2022/04/23 05:00:33;;;;;;;40.75;21.35;;;11.20;99.90;;;;;;5071899;28;20397;-84
2022/04/23 05:02:59;;;;;;;37.78;21.45;;;11.20;99.90;;;;;;5071934;28;20530;-85
2022/04/23 05:05:25;;;;;;;31.45;20.80;;;11.20;99.90;;;;;;5063719;28;20017;-85
2022/04/23 05:07:50;;;;;;;34.90;21.17;;;11.20;99.90;;;;;;5071730;28;20069;-84
2022/04/23 05:10:16;;;;;;;44.90;21.45;;;11.20;99.90;;;;;;5070197;28;20136;-82
2022/04/23 05:12:42;;;;;;;37.92;20.63;;;11.20;99.90;;;;;;5097361;22;20040;-80
2022/04/23 05:15:08;;;;;;;35.85;21.90;;;11.20;99.90;;;;;;5099105;28;20165;-80
2022/04/23 05:17:38;;;;;;;37.10;22.55;;;11.30;99.90;;;;;;5099485;28;20035;-80
2022/04/23 05:20:04;;;;;;;36.92;21.75;;;11.30;99.90;;;;;;5097263;28;20177;-80
2022/04/23 05:22:31;;;;;;;36.42;21.95;;;11.30;99.90;;;;;;5096292;28;20028;-80
2022/04/23 05:24:57;;;;;;;33.55;20.90;;;11.30;99.90;;;;;;5096889;28;20460;-80
2022/04/23 05:27:26;;;;;;;37.35;22.05;;;11.30;99.90;;;;;;5097939;28;20023;-80
2022/04/23 05:29:51;;;;;;;40.58;22.65;;;11.30;99.90;;;;;;5099186;28;20020;-81
2022/04/23 05:32:17;;;;;;;35.88;21.77;;;11.30;99.90;;;;;;5099301;28;20020;-80
2022/04/23 05:34:43;;;;;;;37.17;23.05;;;11.30;99.90;;;;;;5099240;28;20024;-80
2022/04/23 05:37:09;;;;;;;36.80;22.73;;;11.30;99.90;;;;;;5097964;28;20420;-80
2022/04/23 05:39:35;;;;;;;37.08;22.42;;;11.30;99.90;;;;;;5099348;28;20023;-80
2022/04/23 05:42:01;;;;;;;45.00;22.30;;;11.30;99.90;;;;;;5098761;28;20073;-80
2022/04/23 05:44:26;;;;;;;39.45;22.27;;;11.30;99.90;;;;;;5103619;28;20016;-80
2022/04/23 05:46:52;;;;;;;39.50;22.20;;;11.30;99.90;;;;;;5096479;28;20020;-80
2022/04/23 05:49:18;;;;;;;35.30;20.60;;;11.30;99.90;;;;;;5096666;28;20016;-80
2022/04/23 05:51:44;;;;;;;33.85;22.05;;;11.30;99.90;;;;;;5104096;28;20012;-80
2022/04/23 05:54:09;;;;;;;46.05;23.23;;;11.40;99.90;;;;;;5098964;28;20039;-81
2022/04/23 05:56:35;;;;;;;35.72;20.45;;;11.40;99.90;;;;;;5098762;28;20369;-80
2022/04/23 05:59:01;;;;;;;35.58;22.15;;;11.40;99.90;;;;;;5098741;28;20019;-80
2022/04/23 06:01:26;;;;;;;36.17;20.38;;;11.50;99.90;;;;;;5099014;28;20020;-80
2022/04/23 06:03:52;;;;;;;40.95;22.40;;;11.50;99.90;;;;;;5098703;28;20023;-80
2022/04/23 06:06:19;;;;;;;38.75;22.05;;;11.50;99.90;;;;;;5095520;28;20027;-80
2022/04/23 06:08:45;;;;;;;34.22;21.90;;;11.60;99.90;;;;;;5095889;28;20096;-80
2022/04/23 06:11:11;;;;;;;32.72;20.73;;;11.60;99.90;;;;;;5096176;28;20062;-80
2022/04/23 06:13:36;;;;;;;31.80;20.00;;;11.60;99.90;;;;;;5126938;22;20043;-83
2022/04/23 06:16:02;;;;;;;36.63;22.15;;;11.70;99.90;;;;;;5109661;28;20548;-83
2022/04/23 06:18:28;;;;;;;35.25;22.60;;;11.80;99.90;;;;;;5109783;28;20024;-83
2022/04/23 06:20:54;;;;;;;37.13;20.80;;;11.90;99.90;;;;;;5111449;28;20423;-83
2022/04/23 06:23:19;;;;;;;36.67;21.20;;;11.90;99.90;;;;;;5103547;28;20096;-83
2022/04/23 06:25:45;;;;;;;30.35;18.00;;;12.00;99.90;;;;;;5102667;28;20024;-83
2022/04/23 06:28:11;;;;;;;33.97;21.67;;;12.20;99.90;;;;;;5097333;28;20483;-84
2022/04/23 06:30:38;;;;;;;31.13;20.00;;;12.20;99.90;;;;;;5101257;28;20456;-83
2022/04/23 06:33:04;;;;;;;33.35;21.25;;;12.30;99.90;;;;;;5102148;28;20020;-83
2022/04/23 06:35:30;;;;;;;34.33;20.00;;;12.40;99.90;;;;;;5098423;28;20488;-83
2022/04/23 06:37:57;;;;;;;29.42;19.85;;;12.50;99.90;;;;;;5102653;28;20012;-83
2022/04/23 06:40:23;;;;;;;30.60;20.60;;;12.60;99.90;;;;;;5100377;28;20039;-84
2022/04/23 06:42:49;;;;;;;29.33;18.48;;;12.80;99.90;;;;;;5097201;28;20020;-83
2022/04/23 06:45:15;;;;;;;28.70;18.40;;;12.90;99.90;;;;;;5101989;28;20403;-83
2022/04/23 06:47:40;;;;;;;32.33;19.60;;;12.90;99.90;;;;;;5101443;28;20379;-82
2022/04/23 06:50:07;;;;;;;27.30;18.48;;;13.00;99.90;;;;;;5098363;28;20444;-83
2022/04/23 06:52:33;;;;;;;34.35;19.85;;;13.00;99.90;;;;;;5101597;28;20119;-83
2022/04/23 06:54:59;;;;;;;31.90;19.42;;;13.20;99.90;;;;;;5100898;28;20027;-83
2022/04/23 06:57:25;;;;;;;28.90;18.80;;;13.30;99.90;;;;;;5097254;28;20503;-82
2022/04/23 06:59:52;;;;;;;31.73;20.25;;;13.30;99.90;;;;;;5101378;28;20020;-82
2022/04/23 07:02:18;;;;;;;26.00;18.48;;;13.20;99.70;;;;;;5099015;28;20118;-82
2022/04/23 07:04:44;;;;;;;28.35;18.70;;;13.40;99.90;;;;;;5098333;28;20032;-82
2022/04/23 07:07:11;;;;;;;26.77;19.25;;;13.40;99.90;;;;;;5102177;28;20130;-82
2022/04/23 07:09:37;;;;;;;28.65;20.08;;;13.60;99.90;;;;;;5098606;28;20012;-81
2022/04/23 07:12:05;;;;;;;28.38;18.90;;;13.70;99.90;;;;;;5116173;22;20032;-80
2022/04/23 07:14:32;;;;;;;25.48;18.70;;;13.70;99.80;;;;;;5093255;28;20036;-81
2022/04/23 07:16:57;;;;;;;29.63;18.10;;;13.80;99.70;;;;;;5104504;28;20028;-80
2022/04/23 07:19:24;;;;;;;26.80;18.85;;;13.90;99.10;;;;;;5097889;28;20417;-81
2022/04/23 07:21:49;;;;;;;28.33;18.88;;;13.90;98.80;;;;;;5096598;28;20078;-81
2022/04/23 07:24:15;;;;;;;27.70;18.00;;;13.90;99.00;;;;;;5092718;28;20028;-81
2022/04/23 07:26:41;;;;;;;29.95;18.00;;;13.80;98.70;;;;;;5097116;28;20472;-81
2022/04/23 07:29:10;;;;;;;28.40;18.38;;;13.90;98.90;;;;;;5097649;28;20024;-81
2022/04/23 07:31:37;;;;;;;30.65;18.10;;;14.00;98.90;;;;;;5097545;28;20016;-81
2022/04/23 07:39:33;;;;;;;33.10;18.42;;;14.10;99.00;;;;;;5097793;28;20034;-80
2022/04/23 07:41:59;;;;;;;26.95;19.10;;;14.10;98.90;;;;;;5096864;28;20023;-80
2022/04/23 07:44:25;;;;;;;27.60;18.45;;;14.10;98.90;;;;;;5100737;28;20064;-79
2022/04/23 07:46:51;;;;;;;26.30;17.45;;;14.20;98.30;;;;;;5104272;28;20063;-78
2022/04/23 07:49:17;;;;;;;28.17;17.77;;;14.20;97.90;;;;;;5100401;28;20023;-78
2022/04/23 07:51:46;;;;;;;27.13;17.88;;;14.20;98.00;;;;;;5103350;28;20035;-78
2022/04/23 07:54:12;;;;;;;25.35;18.23;;;14.30;99.00;;;;;;5098069;28;20491;-79
2022/04/23 07:56:38;;;;;;;24.08;17.00;;;14.30;97.10;;;;;;5098393;28;20047;-79
2022/04/23 07:59:04;;;;;;;26.80;19.25;;;14.40;98.10;;;;;;5100243;28;20130;-79
2022/04/23 08:01:30;;;;;;;27.80;18.00;;;14.50;96.90;;;;;;5103509;28;20514;-79
2022/04/23 08:03:56;;;;;;;24.00;17.27;;;14.60;97.90;;;;;;5096485;28;20020;-80
2022/04/23 08:06:22;;;;;;;22.75;16.42;;;14.70;96.30;;;;;;5099762;28;20012;-80
2022/04/23 08:08:48;;;;;;;24.17;16.90;;;14.80;96.80;;;;;;5105816;28;20468;-80
2022/04/23 08:11:14;;;;;;;22.13;17.05;;;14.90;96.90;;;;;;5100274;28;20030;-80
2022/04/23 08:13:40;;;;;;;23.92;16.70;;;15.00;96.50;;;;;;5115016;22;20047;-83
2022/04/23 08:16:05;;;;;;;20.70;15.70;;;15.00;94.50;;;;;;5113030;28;20031;-83
2022/04/23 08:18:31;;;;;;;25.20;15.93;;;15.10;95.60;;;;;;5113495;28;20031;-86
2022/04/23 08:20:57;;;;;;;24.45;16.30;;;15.20;94.50;;;;;;5113200;28;20030;-82
2022/04/23 08:23:23;;;;;;;20.30;15.45;;;15.40;94.90;;;;;;5107443;28;20020;-81
2022/04/23 08:25:49;;;;;;;24.00;16.58;;;15.60;94.50;;;;;;5101581;28;20468;-82
2022/04/23 08:30:59;;;;;;;23.60;15.55;;;15.80;92.80;;;;;;5100454;28;20077;-83
2022/04/23 08:33:57;;;;;;;21.33;15.68;;;15.90;92.20;;;;;;5104439;28;20028;-82
2022/04/23 08:36:11;;;;;;;22.85;15.07;;;15.90;91.60;;;;;;5103430;28;20508;-86
2022/04/23 08:38:36;;;;;;;20.83;15.00;;;16.00;92.40;;;;;;5101966;28;20015;-83
2022/04/23 08:41:04;;;;;;;21.70;14.57;;;16.30;91.70;;;;;;5100465;28;20099;-83
2022/04/23 08:43:31;;;;;;;19.90;14.57;;;16.60;91.40;;;;;;5100105;28;20412;-82
2022/04/23 08:46:01;;;;;;;19.88;13.40;;;17.10;91.60;;;;;;5102801;28;20032;-83
2022/04/23 08:48:31;;;;;;;17.67;13.05;;;17.70;88.90;;;;;;5103837;28;20042;-84
2022/04/23 08:51:00;;;;;;;23.35;14.32;;;18.50;80.20;;;;;;5100051;28;20020;-84
2022/04/23 08:53:30;;;;;;;21.30;13.82;;;18.20;79.80;;;;;;5105978;28;20077;-83
2022/04/23 08:55:56;;;;;;;18.80;14.00;;;18.10;79.50;;;;;;5100090;28;20102;-83
2022/04/23 08:58:23;;;;;;;20.63;14.18;;;18.10;80.40;;;;;;5095281;28;20055;-83
2022/04/23 09:00:49;;;;;;;19.30;13.63;;;18.20;77.10;;;;;;5100009;28;20071;-82
2022/04/23 09:03:16;;;;;;;19.58;13.95;;;18.30;78.70;;;;;;5096308;28;20349;-83
2022/04/23 09:05:43;;;;;;;23.02;13.00;;;18.50;78.50;;;;;;5098648;28;20537;-83
2022/04/23 09:08:09;;;;;;;16.45;12.43;;;18.90;75.50;;;;;;5100540;28;20020;-83
2022/04/23 09:10:46;;;;;;;18.20;13.60;;;19.20;76.00;;;;;;5102193;28;20015;-83
2022/04/23 09:13:25;;;;;;;17.58;13.20;;;19.50;74.30;;;;;;5112228;22;20044;-87
2022/04/23 09:24:20;;;;;;;19.13;13.20;;;20.40;68.00;;;;;;5069996;28;20059;-89
2022/04/23 09:27:03;;;;;;;20.70;13.30;;;20.30;68.90;;;;;;5069402;28;20025;-88
2022/04/23 09:29:30;;;;;;;15.63;11.93;;;20.60;64.70;;;;;;5061365;28;20387;-88
2022/04/23 09:32:19;;;;;;;23.95;15.50;;;20.90;64.40;;;;;;5080437;28;20029;-90
2022/04/23 09:34:45;;;;;;;20.23;14.80;;;21.40;61.80;;;;;;5065653;28;20033;-88
2022/04/23 09:37:11;;;;;;;18.30;13.70;;;21.20;63.30;;;;;;5065197;28;20550;-88
2022/04/23 09:39:38;;;;;;;17.17;12.75;;;20.80;63.90;;;;;;5059866;28;20020;-92
2022/04/23 09:42:18;;;;;;;17.63;13.23;;;21.70;62.60;;;;;;5062241;28;20071;-89
2022/04/23 09:44:45;;;;;;;19.67;12.65;;;21.90;59.60;;;;;;5071093;28;20021;-93
2022/04/23 09:47:28;;;;;;;17.65;12.82;;;22.30;59.50;;;;;;5068227;28;20032;-90
2022/04/23 09:49:57;;;;;;;17.27;13.88;;;23.10;56.90;;;;;;5068725;28;20024;-90
2022/04/23 09:52:29;;;;;;;18.23;12.70;;;23.10;56.10;;;;;;5069479;28;20024;-90
2022/04/23 09:55:02;;;;;;;18.63;13.77;;;23.50;53.20;;;;;;5080160;28;20020;-92
2022/04/23 09:57:29;;;;;;;19.92;13.00;;;23.60;52.00;;;;;;5071907;28;20016;-89
2022/04/23 09:59:55;;;;;;;15.77;12.68;;;24.30;53.10;;;;;;5067453;28;20016;-90
2022/04/23 10:02:24;;;;;;;18.13;12.05;;;23.90;52.20;;;;;;5068735;28;20681;-89
2022/04/23 10:04:54;;;;;;;17.60;12.75;;;24.70;52.40;;;;;;5073730;28;20430;-90
2022/04/23 10:07:21;;;;;;;19.15;13.25;;;24.70;49.20;;;;;;5071090;28;20016;-90
2022/04/23 10:09:49;;;;;;;12.95;10.55;;;24.70;50.40;;;;;;5066011;28;20145;-91
2022/04/23 10:12:19;;;;;;;19.27;12.75;;;25.50;48.90;;;;;;5093800;22;20029;-87
2022/04/23 10:15:00;;;;;;;18.77;11.15;;;26.00;45.80;;;;;;5111250;28;20031;-87
2022/04/23 10:17:28;;;;;;;20.15;12.30;;;27.50;49.40;;;;;;5102143;28;20028;-86
2022/04/23 10:19:55;;;;;;;14.30;11.27;;;27.50;44.10;;;;;;5101227;28;20023;-84
2022/04/23 10:22:31;;;;;;;16.75;11.23;;;27.10;43.90;;;;;;5098851;28;20031;-86
2022/04/23 10:25:22;;;;;;;16.02;10.95;;;27.80;41.50;;;;;;5099429;28;20081;-87
2022/04/23 10:27:49;;;;;;;17.77;11.38;;;28.50;42.70;;;;;;5099597;28;20035;-86
2022/04/23 10:30:15;;;;;;;18.40;11.40;;;28.10;40.40;;;;;;5100663;28;20111;-86
2022/04/23 10:32:43;;;;;;;17.42;13.68;;;28.10;41.10;;;;;;5096774;28;20540;-85
2022/04/23 10:35:18;;;;;;;16.38;12.32;;;26.40;41.60;;;;;;5097683;28;20122;-87
2022/04/23 10:37:45;;;;;;;15.88;12.10;;;26.80;43.00;;;;;;5101183;28;20050;-87
2022/04/23 10:40:11;;;;;;;15.10;11.27;;;27.10;43.10;;;;;;5100104;28;20019;-86
2022/04/23 10:42:38;;;;;;;13.95;11.40;;;26.40;44.20;;;;;;5096878;28;20016;-84
2022/04/23 10:45:06;;;;;;;15.43;10.95;;;27.50;42.60;;;;;;5109546;28;20035;-83
2022/04/23 10:47:39;;;;;;;16.80;12.43;;;28.10;43.20;;;;;;5095098;28;20028;-86
2022/04/23 10:50:22;;;;;;;16.35;11.20;;;27.70;40.90;;;;;;5109740;28;20032;-87
2022/04/23 10:52:53;;;;;;;21.60;11.13;;;28.30;40.40;;;;;;5096435;28;20023;-89
2022/04/23 10:55:18;;;;;;;18.05;11.82;;;27.80;43.00;;;;;;5101248;28;20062;-89
2022/04/23 10:57:50;;;;;;;13.70;10.27;;;28.30;40.40;;;;;;5092477;28;20080;-87
2022/04/23 11:00:21;;;;;;;16.67;11.43;;;28.90;41.40;;;;;;5098463;28;20040;-86
2022/04/23 11:02:48;;;;;;;17.92;11.70;;;27.80;39.90;;;;;;5104382;28;20023;-80
2022/04/23 11:13:58;;;;;;;16.95;13.15;;;25.90;43.40;;;;;;5120020;22;20514;-83
2022/04/23 11:16:29;;;;;;;17.15;12.43;;;26.70;43.00;;;;;;5099923;28;20035;-81
2022/04/23 11:18:56;;;;;;;19.63;12.57;;;27.00;45.60;;;;;;5100033;28;20031;-81
2022/04/23 11:21:32;;;;;;;19.73;12.80;;;28.50;42.70;;;;;;5099208;28;20016;-81
2022/04/23 11:24:01;;;;;;;17.80;12.95;;;28.10;41.80;;;;;;5100032;28;20065;-82
2022/04/23 11:26:42;;;;;;;18.98;13.35;;;29.00;41.40;;;;;;5100599;28;20179;-82
2022/04/23 11:29:08;;;;;;;24.05;13.88;;;28.00;40.50;;;;;;5101682;28;20016;-81
2022/04/23 11:31:34;;;;;;;17.40;12.85;;;28.20;40.00;;;;;;5099685;28;20500;-81
2022/04/23 11:34:01;;;;;;;16.75;12.70;;;28.60;41.90;;;;;;5100054;28;20020;-81
2022/04/23 11:36:32;;;;;;;16.52;13.07;;;27.70;41.70;;;;;;5100125;28;20016;-81
2022/04/23 11:39:09;;;;;;;21.80;13.20;;;28.40;40.50;;;;;;5101380;28;20013;-81
2022/04/23 11:41:38;;;;;;;18.38;13.40;;;27.50;41.90;;;;;;5101092;28;20020;-80
2022/04/23 11:44:45;;;;;;;20.05;13.70;;;27.50;42.00;;;;;;5100849;28;20073;-81
2022/04/23 11:47:13;;;;;;;20.95;14.27;;;27.80;42.20;;;;;;5098437;28;20036;-82
2022/04/23 11:49:39;;;;;;;20.55;13.93;;;26.70;41.10;;;;;;5103886;28;20020;-82
2022/04/23 11:52:10;;;;;;;21.83;13.23;;;26.70;43.00;;;;;;5110955;28;20030;-82
2022/04/23 11:54:45;;;;;;;18.05;12.77;;;28.10;39.70;;;;;;5101161;28;20145;-82
2022/04/23 11:57:13;;;;;;;16.48;13.00;;;29.40;39.20;;;;;;5099295;28;20023;-79
2022/04/23 11:59:41;;;;;;;18.98;13.98;;;29.90;39.30;;;;;;5098171;28;20011;-82
2022/04/23 12:02:24;;;;;;;19.50;13.27;;;29.70;37.80;;;;;;5102658;28;20099;-83
2022/04/23 12:04:52;;;;;;;17.13;12.73;;;30.00;37.20;;;;;;5099293;28;20486;-81
2022/04/23 12:07:19;;;;;;;18.45;13.77;;;30.40;37.40;;;;;;5100862;28;20495;-82
2022/04/23 12:09:59;;;;;;;17.88;13.07;;;29.60;35.30;;;;;;5099097;28;20020;-83
2022/04/23 12:12:27;;;;;;;18.38;13.95;;;28.70;39.90;;;;;;5118476;22;20050;-83
2022/04/23 12:14:55;;;;;;;18.48;14.00;;;29.00;37.10;;;;;;5097861;28;20032;-85
2022/04/23 12:17:31;;;;;;;16.13;12.75;;;28.70;36.40;;;;;;5098204;28;20021;-84
2022/04/23 12:19:58;;;;;;;15.73;12.40;;;28.00;38.70;;;;;;5099187;28;20030;-88
2022/04/23 12:22:25;;;;;;;15.35;12.27;;;28.90;37.80;;;;;;5097931;28;20466;-89
2022/04/23 12:24:51;;;;;;;18.80;12.23;;;29.70;36.30;;;;;;5096852;28;20029;-86
2022/04/23 12:27:20;;;;;;;16.13;11.25;;;30.20;35.70;;;;;;5100329;28;20498;-90
2022/04/23 12:40:58;;;;;;;18.17;13.30;;;30.70;35.80;;;;;;5097251;28;20110;-83
2022/04/23 12:43:30;;;;;;;16.05;13.77;;;27.80;40.20;;;;;;5094094;28;20031;-86
2022/04/23 12:46:09;;;;;;;14.45;12.93;;;29.40;35.70;;;;;;5101388;28;20105;-83
2022/04/23 12:48:58;;;;;;;14.90;12.85;;;28.00;37.10;;;;;;5095292;28;20186;-83
2022/04/23 12:51:24;;;;;;;16.73;13.32;;;27.90;38.60;;;;;;5099630;28;20011;-84
2022/04/23 12:53:50;;;;;;;21.05;14.80;;;29.20;37.20;;;;;;5101051;28;20047;-84
2022/04/23 12:56:18;;;;;;;19.58;14.30;;;29.00;35.90;;;;;;5098409;28;20044;-84
2022/04/23 12:58:44;;;;;;;20.45;13.60;;;29.50;35.20;;;;;;5097961;28;20034;-88
2022/04/23 13:01:09;;;;;;;20.45;14.68;;;29.90;35.80;;;;;;5100331;28;20106;-87
2022/04/23 13:03:37;;;;;;;17.88;14.23;;;29.30;34.40;;;;;;5100307;28;20086;-86
2022/04/23 13:06:04;;;;;;;20.95;16.30;;;27.60;38.70;;;;;;5097685;28;20020;-87
2022/04/23 13:11:30;;;;;;;18.33;14.40;;;27.80;39.70;;;;;;5098599;28;20495;-84
2022/04/23 13:14:00;;;;;;;21.77;14.73;;;29.00;36.90;;;;;;5135402;22;20079;-92
2022/04/23 13:16:30;;;;;;;17.17;13.53;;;28.10;38.40;;;;;;5115328;28;20026;-91